Time;durP1;ratioP1;P1;durP2;ratioP2;P2;SDS_P1;SDS_P2;PMS_P1;PMS_P2;Temp;Humidity;BMP_temperature;BMP_pressure;BME280_temperature;BME280_humidity;BME280_pressure;Samples;Min_cycle;Max_cycle;Signal;HPM_P1;HPM_P2
2021/11/23 00:00:45;;;;;;;27.90;11.68;;;;;;;7.08;100.00;96922.03;5084160;28;20141;-66
2021/11/23 00:03:14;;;;;;;25.67;11.05;;;;;;;6.63;99.09;96827.13;5084602;28;20044;-66
2021/11/23 00:05:43;;;;;;;21.88;9.20;;;;;;;6.68;98.89;96855.22;5083013;28;20055;-65
2021/11/23 00:08:10;;;;;;;22.23;9.80;;;;;;;7.17;99.58;96930.16;5084558;28;20524;-66
2021/11/23 00:10:40;;;;;;;18.35;9.38;;;;;;;6.97;99.39;96931.94;5084778;28;20343;-66
2021/11/23 00:13:08;;;;;;;23.77;11.75;;;;;;;6.64;99.80;96892.81;5084463;28;20048;-66
2021/11/23 00:15:35;;;;;;;21.77;10.65;;;;;;;6.19;99.74;96837.25;5084324;28;20062;-65
2021/11/23 00:18:04;;;;;;;25.33;11.63;;;;;;;7.12;98.03;96931.19;5084532;28;20067;-66
2021/11/23 00:20:32;;;;;;;22.90;10.95;;;;;;;6.75;99.49;96913.19;5083083;28;20056;-65
2021/11/23 00:22:59;;;;;;;26.08;11.60;;;;;;;6.92;100.00;96937.72;5083745;28;20064;-66
2021/11/23 00:25:27;;;;;;;25.35;10.77;;;;;;;6.40;99.90;96837.06;5074362;28;20048;-66
2021/11/23 00:27:55;;;;;;;24.92;11.38;;;;;;;7.17;98.32;96944.72;5064203;28;20067;-67
2021/11/23 00:30:24;;;;;;;26.33;12.77;;;;;;;7.14;98.03;96945.44;5064468;28;20048;-66
2021/11/23 00:32:52;;;;;;;22.98;10.70;;;;;;;7.17;97.06;96939.22;5068154;28;20057;-66
2021/11/23 00:35:19;;;;;;;23.08;11.00;;;;;;;6.82;96.60;96899.66;5068168;28;20048;-66
2021/11/23 00:37:47;;;;;;;27.85;13.10;;;;;;;7.11;96.82;96946.09;5067739;28;20052;-67
2021/11/23 00:40:15;;;;;;;28.75;13.20;;;;;;;6.82;96.83;96921.69;5066565;28;20446;-66
2021/11/23 00:42:42;;;;;;;27.10;13.45;;;;;;;6.98;97.35;96941.00;5067930;28;20060;-65
2021/11/23 00:45:10;;;;;;;29.58;14.52;;;;;;;6.17;98.12;96894.53;5067806;28;20408;-65
2021/11/23 00:47:39;;;;;;;27.35;14.93;;;;;;;6.64;97.66;96939.59;5067727;28;20050;-65
2021/11/23 00:50:07;;;;;;;27.98;13.52;;;;;;;6.70;97.09;96957.47;5068053;28;20082;-65
2021/11/23 00:52:35;;;;;;;30.23;15.05;;;;;;;6.72;97.33;96927.66;5067844;28;20053;-65
2021/11/23 00:55:04;;;;;;;32.00;15.65;;;;;;;6.69;97.37;96939.38;5068231;28;20144;-65
2021/11/23 00:57:31;;;;;;;35.83;15.75;;;;;;;6.60;98.18;96946.97;5066553;28;20052;-65
2021/11/23 00:59:58;;;;;;;37.10;16.85;;;;;;;6.64;98.66;96936.06;5067866;28;20059;-65
2021/11/23 01:02:24;;;;;;;38.40;18.88;;;;;;;6.26;99.52;96908.94;5067465;28;20152;-65
2021/11/23 01:04:51;;;;;;;30.25;14.23;;;;;;;6.63;100.00;96935.25;5067517;28;20059;-65
2021/11/23 01:07:18;;;;;;;32.67;14.45;;;;;;;6.66;99.07;96933.75;5066766;28;20056;-66
2021/11/23 01:09:45;;;;;;;31.10;14.68;;;;;;;6.64;100.00;96930.56;5067224;28;20159;-66
2021/11/23 01:12:12;;;;;;;22.40;11.07;;;;;;;6.69;99.37;96925.59;5067088;28;20056;-65
2021/11/23 01:14:39;;;;;;;25.08;10.75;;;;;;;6.65;99.06;96934.91;5066040;28;20495;-66
2021/11/23 01:17:06;;;;;;;33.17;14.85;;;;;;;6.68;99.26;96931.47;5065608;28;20657;-66
2021/11/23 01:19:33;;;;;;;33.47;15.25;;;;;;;6.63;99.10;96924.25;5065512;28;20063;-65
2021/11/23 01:22:00;;;;;;;26.35;12.85;;;;;;;6.61;100.00;96931.25;5065497;28;20059;-66
2021/11/23 01:24:27;;;;;;;26.98;12.40;;;;;;;5.78;99.92;96826.50;5068846;28;20571;-66
2021/11/23 01:26:53;;;;;;;25.63;12.15;;;;;;;6.65;99.36;96938.47;5087160;28;20055;-65
2021/11/23 01:29:20;;;;;;;22.55;11.57;;;;;;;6.62;99.53;96933.66;5086084;28;20048;-66
2021/11/23 01:31:47;;;;;;;30.77;14.25;;;;;;;5.99;100.00;96838.97;5086846;28;20058;-66
2021/11/23 01:34:16;;;;;;;27.50;14.52;;;;;;;6.62;99.70;96928.16;5087082;28;20052;-65
2021/11/23 01:36:43;;;;;;;26.35;10.93;;;;;;;6.21;100.00;96872.66;5084966;28;20415;-65
2021/11/23 01:39:09;;;;;;;25.38;11.02;;;;;;;6.60;100.00;96924.94;5085598;28;20048;-66
2021/11/23 01:41:36;;;;;;;22.67;11.98;;;;;;;6.75;100.00;96926.19;5087188;28;20426;-66
2021/11/23 01:44:03;;;;;;;26.25;11.90;;;;;;;6.80;98.54;96923.16;5085751;28;20048;-65
2021/11/23 01:46:31;;;;;;;27.42;10.45;;;;;;;6.79;98.29;96922.38;5086384;28;20052;-65
2021/11/23 01:48:58;;;;;;;27.02;10.23;;;;;;;6.89;97.45;96921.09;5086694;28;20453;-65
2021/11/23 01:51:25;;;;;;;22.50;10.70;;;;;;;6.92;97.20;96921.19;5086427;28;20052;-65
2021/11/23 01:53:51;;;;;;;26.13;11.52;;;;;;;6.45;97.77;96873.38;5086896;28;20044;-65
2021/11/23 01:56:18;;;;;;;29.05;13.23;;;;;;;6.64;98.02;96920.34;5087164;28;20048;-65
2021/11/23 01:58:45;;;;;;;23.85;10.80;;;;;;;6.80;98.54;96918.47;5086423;28;20052;-66
2021/11/23 02:01:12;;;;;;;28.92;12.45;;;;;;;6.71;98.33;96926.06;5086873;28;20052;-66
2021/11/23 02:03:40;;;;;;;28.80;11.68;;;;;;;6.68;98.21;96921.25;5084862;28;20051;-66
2021/11/23 02:06:08;;;;;;;25.70;12.30;;;;;;;6.82;97.74;96926.38;5086841;28;20521;-65
2021/11/23 02:08:35;;;;;;;28.52;13.23;;;;;;;6.54;97.39;96951.13;5085005;28;20056;-65
2021/11/23 02:11:03;;;;;;;27.92;12.77;;;;;;;6.57;98.54;96933.09;5086657;28;20051;-65
2021/11/23 02:13:31;;;;;;;27.40;12.70;;;;;;;6.15;98.08;96859.13;5086477;28;20590;-65
2021/11/23 02:15:58;;;;;;;26.85;13.45;;;;;;;6.62;97.89;96933.66;5086592;28;20050;-66
2021/11/23 02:18:26;;;;;;;30.30;13.23;;;;;;;6.17;97.35;96867.03;5084865;28;20048;-66
2021/11/23 02:20:54;;;;;;;29.73;12.85;;;;;;;6.64;97.28;96931.34;5086344;28;20060;-66
2021/11/23 02:23:22;;;;;;;28.05;11.90;;;;;;;6.56;97.30;96915.00;5084458;28;20412;-65
2021/11/23 02:25:49;;;;;;;27.35;12.68;;;;;;;6.67;96.75;96927.13;5073815;28;20078;-65
2021/11/23 02:28:16;;;;;;;35.55;16.23;;;;;;;5.97;96.60;96824.00;5065986;28;20086;-66
2021/11/23 02:30:48;;;;;;;29.45;12.75;;;;;;;6.70;96.26;96924.44;5066081;28;20044;-65
2021/11/23 02:33:17;;;;;;;30.50;14.88;;;;;;;6.17;97.13;96856.03;5065779;28;20060;-65
2021/11/23 02:35:44;;;;;;;29.63;13.68;;;;;;;6.52;97.03;96936.88;5065859;28;20400;-65
2021/11/23 02:38:12;;;;;;;32.58;15.15;;;;;;;6.54;97.43;96940.09;5065388;28;20059;-66
2021/11/23 02:40:39;;;;;;;29.92;14.55;;;;;;;6.30;97.03;96915.38;5066018;28;20480;-65
2021/11/23 02:43:06;;;;;;;29.23;14.10;;;;;;;6.08;97.83;96874.63;5064204;28;20607;-65
2021/11/23 02:45:32;;;;;;;25.13;13.15;;;;;;;6.56;97.42;96935.03;5066184;28;20052;-66
2021/11/23 02:48:01;;;;;;;27.05;11.77;;;;;;;6.00;96.95;96831.53;5065352;28;20049;-66
2021/11/23 02:50:29;;;;;;;24.05;13.07;;;;;;;5.03;97.24;96678.91;5066091;28;20056;-66
2021/11/23 02:52:56;;;;;;;24.70;11.63;;;;;;;6.58;97.41;96916.22;5065215;28;20044;-66
2021/11/23 02:55:27;;;;;;;20.45;10.02;;;;;;;6.67;97.03;96930.66;5065588;28;20059;-66
2021/11/23 02:57:54;;;;;;;15.65;7.50;;;;;;;6.78;96.87;96937.28;5065249;28;20053;-65
2021/11/23 03:00:24;;;;;;;18.08;8.57;;;;;;;6.63;97.40;96937.19;5064045;28;20060;-66
2021/11/23 03:02:52;;;;;;;42.25;18.67;;;;;;;6.69;97.53;96933.88;5065109;28;20056;-66
2021/11/23 03:05:23;;;;;;;30.23;11.40;;;;;;;6.62;98.14;96927.34;5065327;28;20056;-66
2021/11/23 03:07:51;;;;;;;20.25;10.10;;;;;;;6.13;98.24;96858.66;5063412;28;20538;-66
2021/11/23 03:10:26;;;;;;;19.87;9.87;;;;;;;6.63;98.39;96929.75;5065351;28;20088;-66
2021/11/23 03:12:55;;;;;;;21.30;9.48;;;;;;;5.87;98.27;96818.97;5065114;28;20585;-66
2021/11/23 03:15:23;;;;;;;18.38;10.30;;;;;;;6.62;98.60;96933.66;5065198;28;20530;-66
2021/11/23 03:17:50;;;;;;;25.73;11.25;;;;;;;6.67;98.12;96944.41;5064751;28;20517;-66
2021/11/23 03:20:19;;;;;;;20.77;10.80;;;;;;;6.64;97.91;96925.84;5064820;28;20049;-66
2021/11/23 03:22:47;;;;;;;21.83;10.77;;;;;;;6.65;97.70;96921.97;5063168;28;20057;-66
2021/11/23 03:25:14;;;;;;;37.63;16.17;;;;;;;6.73;97.21;96923.78;5072063;28;20048;-66
2021/11/23 03:27:41;;;;;;;20.63;10.90;;;;;;;6.75;97.27;96920.69;5085231;28;20054;-67
2021/11/23 03:30:11;;;;;;;17.52;9.40;;;;;;;6.76;95.22;96923.09;5084707;28;20048;-66
2021/11/23 03:32:39;;;;;;;23.42;12.15;;;;;;;6.66;95.41;96934.56;5084583;28;20044;-67
2021/11/23 03:35:07;;;;;;;22.52;11.45;;;;;;;6.60;92.40;96913.94;5084699;28;20051;-66
2021/11/23 03:37:34;;;;;;;21.27;11.05;;;;;;;6.20;93.55;96871.84;5085142;28;20063;-66
2021/11/23 03:40:01;;;;;;;25.45;11.48;;;;;;;6.45;94.39;96933.91;5084534;28;20052;-68
2021/11/23 03:42:27;;;;;;;21.80;10.10;;;;;;;5.86;95.96;96855.84;5084881;28;20458;-66
2021/11/23 03:44:58;;;;;;;20.23;10.05;;;;;;;6.33;96.96;96931.19;5084858;28;20052;-66
2021/11/23 03:47:27;;;;;;;19.23;9.27;;;;;;;6.35;97.38;96939.91;5084503;28;20137;-66
2021/11/23 03:49:55;;;;;;;22.30;11.35;;;;;;;6.26;97.98;96941.94;5084754;28;20048;-66
2021/11/23 03:52:23;;;;;;;18.23;9.50;;;;;;;6.29;99.21;96924.78;5084649;28;20048;-65
2021/11/23 03:54:51;;;;;;;26.77;12.18;;;;;;;6.34;99.35;96927.28;5084523;28;20048;-65
2021/11/23 03:57:18;;;;;;;39.97;18.73;;;;;;;6.39;99.03;96929.78;5084773;28;20060;-66
2021/11/23 03:59:48;;;;;;;41.30;18.98;;;;;;;6.41;99.08;96927.50;5084683;28;20050;-65
2021/11/23 04:02:18;;;;;;;34.13;15.48;;;;;;;6.44;99.46;96926.81;5084940;28;20043;-65
2021/11/23 04:04:45;;;;;;;22.25;11.50;;;;;;;6.38;100.00;96947.47;5084644;28;20452;-65
2021/11/23 04:07:12;;;;;;;25.23;11.07;;;;;;;6.30;100.00;96937.38;5088043;28;20056;-66
2021/11/23 04:09:40;;;;;;;21.45;10.93;;;;;;;6.30;99.60;96937.38;5087289;28;20127;-65
2021/11/23 04:12:08;;;;;;;17.95;9.75;;;;;;;6.40;98.51;96930.59;5089153;28;20059;-65
2021/11/23 04:14:37;;;;;;;20.75;10.50;;;;;;;6.36;97.93;96930.50;5087278;28;20091;-65
2021/11/23 04:17:05;;;;;;;30.35;14.25;;;;;;;6.33;97.38;96920.19;5088448;28;20052;-66
2021/11/23 04:19:32;;;;;;;26.08;14.63;;;;;;;5.89;98.76;96891.69;5088374;28;20052;-65
2021/11/23 04:22:00;;;;;;;31.02;14.93;;;;;;;6.21;99.21;96909.22;5088327;28;20531;-65
2021/11/23 04:24:27;;;;;;;36.92;16.58;;;;;;;6.32;99.81;96932.34;5087739;28;20058;-65
2021/11/23 04:26:54;;;;;;;47.35;20.70;;;;;;;6.45;99.50;96936.66;5066855;28;20059;-65
2021/11/23 04:29:22;;;;;;;35.65;16.35;;;;;;;6.40;99.08;96938.84;5067790;28;20574;-65
2021/11/23 04:31:49;;;;;;;37.88;17.00;;;;;;;6.09;99.85;96884.44;5068110;28;20052;-65
2021/11/23 04:34:16;;;;;;;39.30;17.85;;;;;;;6.41;99.86;96938.50;5068078;28;20044;-67
2021/11/23 04:36:43;;;;;;;40.30;19.05;;;;;;;6.44;99.65;96932.31;5067708;28;20420;-66
2021/11/23 04:39:11;;;;;;;50.75;22.52;;;;;;;6.17;99.55;96891.78;5066783;28;20071;-65
2021/11/23 04:41:39;;;;;;;55.38;24.50;;;;;;;5.99;99.74;96871.19;5068171;28;20048;-65
2021/11/23 04:44:06;;;;;;;484.60;171.32;;;;;;;6.54;99.00;96931.84;5067713;28;20059;-65
2021/11/23 04:46:33;;;;;;;242.95;78.20;;;;;;;6.57;99.58;96942.16;5066304;28;20059;-67
2021/11/23 04:49:00;;;;;;;119.50;47.22;;;;;;;6.36;99.94;96910.41;5066490;28;20051;-65
2021/11/23 04:51:27;;;;;;;98.63;39.13;;;;;;;6.61;99.99;96937.56;5067938;28;20048;-66
2021/11/23 04:53:54;;;;;;;198.60;60.78;;;;;;;6.70;99.05;96943.72;5066443;28;20048;-66
2021/11/23 04:56:21;;;;;;;103.85;41.10;;;;;;;6.70;98.80;96962.97;5067669;28;20510;-65
2021/11/23 04:58:48;;;;;;;289.30;89.05;;;;;;;6.73;99.19;96937.53;5066117;28;20048;-65
2021/11/23 05:01:14;;;;;;;74.13;26.52;;;;;;;6.86;98.15;96944.59;5065725;28;20536;-65
2021/11/23 05:03:41;;;;;;;38.75;17.95;;;;;;;6.45;97.78;96873.38;5065878;28;20109;-65
2021/11/23 05:06:08;;;;;;;31.13;13.77;;;;;;;6.13;98.19;96841.38;5067459;28;20135;-66
2021/11/23 05:08:36;;;;;;;34.10;19.08;;;;;;;6.78;98.56;96940.03;5067861;28;20164;-66
2021/11/23 05:11:03;;;;;;;29.70;13.05;;;;;;;6.78;97.85;96926.25;5065625;28;20218;-66
2021/11/23 05:13:30;;;;;;;22.70;10.60;;;;;;;6.96;97.16;96948.81;5066123;28;20049;-65
2021/11/23 05:15:57;;;;;;;21.77;10.07;;;;;;;6.88;97.14;96931.28;5066794;28;20048;-66
2021/11/23 05:18:24;;;;;;;35.72;15.73;;;;;;;7.01;97.56;96954.88;5066738;28;20054;-66
2021/11/23 05:20:51;;;;;;;35.53;16.05;;;;;;;6.49;97.98;96912.00;5067020;28;20053;-66
2021/11/23 05:23:17;;;;;;;36.47;16.05;;;;;;;7.00;98.74;96953.25;5067279;28;20052;-66
2021/11/23 05:25:44;;;;;;;26.38;13.15;;;;;;;7.01;99.21;96948.56;5076546;28;20526;-66
2021/11/23 05:28:11;;;;;;;27.88;13.05;;;;;;;7.23;97.23;96959.84;5087298;28;20554;-66
2021/11/23 05:30:38;;;;;;;26.77;13.63;;;;;;;6.86;97.60;96917.06;5085482;28;20052;-66
2021/11/23 05:33:05;;;;;;;38.90;18.60;;;;;;;7.21;97.87;96945.63;5087291;28;20151;-66
2021/11/23 05:35:32;;;;;;;37.63;18.70;;;;;;;7.30;96.70;96954.53;5087288;28;20054;-65
2021/11/23 05:37:59;;;;;;;44.50;22.60;;;;;;;6.14;96.17;96768.75;5085552;28;20055;-65
2021/11/23 05:40:26;;;;;;;44.65;23.30;;;;;;;7.17;97.05;96943.91;5068791;28;20048;-66
2021/11/23 05:42:52;;;;;;;41.58;20.15;;;;;;;7.16;95.13;96926.59;5046815;28;20424;-65
2021/11/23 05:45:19;;;;;;;54.30;24.60;;;;;;;7.14;94.92;96926.16;5061605;28;20137;-66
2021/11/23 05:47:50;;;;;;;176.43;63.55;;;;;;;7.45;94.74;96967.56;5046663;28;20060;-66
2021/11/23 05:50:17;;;;;;;147.77;56.95;;;;;;;7.54;94.82;96959.91;5046015;28;20488;-67
2021/11/23 05:52:44;;;;;;;105.30;44.90;;;;;;;7.06;94.89;96879.47;5046610;28;20055;-67
2021/11/23 05:55:10;;;;;;;85.05;38.63;;;;;;;7.65;95.24;96972.03;5044663;28;20049;-67
2021/11/23 05:57:37;;;;;;;90.68;41.13;;;;;;;7.43;95.35;96920.25;5046588;28;20048;-66
2021/11/23 06:00:05;;;;;;;93.80;38.58;;;;;;;7.90;94.30;96982.94;5044447;28;20052;-67
2021/11/23 06:02:32;;;;;;;73.80;35.20;;;;;;;7.85;94.28;96958.38;5046643;28;20063;-67
2021/11/23 06:05:00;;;;;;;83.60;38.03;;;;;;;7.94;94.59;96961.75;5046120;28;20729;-67
2021/11/23 06:07:27;;;;;;;83.85;37.65;;;;;;;8.14;93.74;96988.28;5044680;28;20142;-65
2021/11/23 06:09:53;;;;;;;102.45;45.00;;;;;;;8.21;93.33;96991.22;5044438;28;20526;-68
2021/11/23 06:12:21;;;;;;;84.88;37.10;;;;;;;8.10;93.15;97001.16;5044048;28;20099;-67
2021/11/23 06:14:48;;;;;;;52.42;26.42;;;;;;;8.16;92.94;97008.03;5046314;28;20053;-68
2021/11/23 06:17:14;;;;;;;73.75;30.85;;;;;;;8.09;92.97;97007.84;5045862;28;20075;-67
2021/11/23 06:19:41;;;;;;;60.78;25.27;;;;;;;8.12;93.30;96993.34;5045827;28;20055;-67
2021/11/23 06:22:09;;;;;;;60.20;27.88;;;;;;;8.35;92.19;97016.41;5045470;28;20083;-66
2021/11/23 06:24:37;;;;;;;44.90;22.45;;;;;;;8.37;91.33;97012.16;5046484;28;20085;-67
2021/11/23 06:27:04;;;;;;;33.10;17.73;;;;;;;8.40;90.55;97018.91;5085716;28;20052;-67
2021/11/23 06:29:31;;;;;;;38.65;17.95;;;;;;;8.34;92.18;97017.59;5085039;28;21042;-68
2021/11/23 06:31:58;;;;;;;31.48;15.77;;;;;;;7.58;92.75;96915.94;5085930;28;20511;-67
2021/11/23 06:34:25;;;;;;;49.30;21.95;;;;;;;8.39;92.98;97028.38;5082915;28;20048;-67
2021/11/23 06:36:52;;;;;;;56.45;25.42;;;;;;;8.43;93.23;97041.09;5085557;28;20048;-66
2021/11/23 06:39:19;;;;;;;63.05;28.15;;;;;;;8.11;93.26;96977.97;5085846;28;20063;-66
2021/11/23 06:41:46;;;;;;;67.43;30.80;;;;;;;8.28;95.68;97041.09;5086304;28;20059;-66
2021/11/23 06:44:13;;;;;;;43.20;21.40;;;;;;;8.31;96.08;97037.63;5086262;28;20051;-66
2021/11/23 06:46:40;;;;;;;80.82;31.33;;;;;;;7.57;95.73;96900.56;5064350;28;20048;-66
2021/11/23 06:49:08;;;;;;;71.63;30.48;;;;;;;8.58;96.10;97075.38;5053678;28;20053;-64
2021/11/23 06:51:34;;;;;;;73.95;36.08;;;;;;;8.74;95.54;97056.84;5051856;28;20060;-67
2021/11/23 06:54:01;;;;;;;67.47;30.77;;;;;;;8.83;95.28;97049.16;5058222;28;20436;-65
2021/11/23 06:56:28;;;;;;;52.40;26.65;;;;;;;8.55;94.84;96998.78;5054708;28;20053;-65
2021/11/23 06:58:58;;;;;;;54.88;27.27;;;;;;;8.91;94.79;97039.88;5064367;28;20454;-65
2021/11/23 07:01:25;;;;;;;43.63;21.73;;;;;;;8.34;94.18;96949.41;5050100;28;20056;-64
2021/11/23 07:03:52;;;;;;;45.35;21.05;;;;;;;8.52;93.70;96955.34;5046007;28;20539;-66
2021/11/23 07:06:18;;;;;;;42.28;20.90;;;;;;;8.90;93.07;96994.06;5056185;28;20041;-65
2021/11/23 07:08:45;;;;;;;105.05;42.00;;;;;;;7.25;91.86;96742.69;5062203;28;20532;-62
2021/11/23 07:11:13;;;;;;;56.33;26.13;;;;;;;9.40;91.79;97067.84;5049569;28;20049;-68
2021/11/23 07:13:41;;;;;;;46.60;21.25;;;;;;;8.06;90.70;96826.50;5059438;28;20058;-66
2021/11/23 07:16:08;;;;;;;40.15;20.95;;;;;;;9.00;90.61;96947.38;5046791;28;20061;-68
2021/11/23 07:18:40;;;;;;;44.38;21.38;;;;;;;9.71;89.69;97054.66;5058343;28;20040;-66
2021/11/23 07:21:07;;;;;;;40.80;20.65;;;;;;;9.82;89.50;97050.16;5054098;28;20052;-69
2021/11/23 07:23:53;;;;;;;58.72;24.65;;;;;;;9.67;89.21;97012.31;5057507;28;20527;-67
2021/11/23 07:26:20;;;;;;;58.15;25.77;;;;;;;9.61;89.48;96991.63;5056269;28;20622;-70
2021/11/23 07:28:47;;;;;;;71.53;31.25;;;;;;;9.42;87.03;96955.72;5049504;28;20438;-68
2021/11/23 07:31:14;;;;;;;62.15;32.15;;;;;;;9.02;87.54;96894.50;5053577;28;20051;-71
2021/11/23 07:33:41;;;;;;;76.22;34.35;;;;;;;9.01;87.92;96865.25;5056954;28;20052;-68
2021/11/23 07:36:08;;;;;;;67.30;32.55;;;;;;;10.37;88.30;97063.50;5063027;28;21051;-69
2021/11/23 07:38:35;;;;;;;74.80;34.92;;;;;;;10.34;87.57;97063.41;5054026;28;20059;-68
2021/11/23 07:41:02;;;;;;;106.85;47.03;;;;;;;10.55;86.39;97063.81;5049237;28;20102;-64
2021/11/23 07:43:29;;;;;;;110.53;46.60;;;;;;;10.48;86.50;97070.00;5058803;28;20040;-67
2021/11/23 07:45:55;;;;;;;98.38;40.08;;;;;;;10.44;88.17;97071.94;5054099;28;20131;-64
2021/11/23 07:48:22;;;;;;;70.78;30.95;;;;;;;10.55;86.96;97074.88;5043684;28;20103;-67
2021/11/23 07:50:49;;;;;;;51.70;23.95;;;;;;;9.36;90.17;96950.88;5056212;28;20140;-66
2021/11/23 07:53:16;;;;;;;46.38;25.15;;;;;;;10.55;89.80;97075.69;5046258;28;20051;-63
2021/11/23 07:55:48;;;;;;;50.90;25.83;;;;;;;10.60;90.02;97078.16;5044553;28;20098;-68
2021/11/23 07:58:16;;;;;;;61.55;27.83;;;;;;;10.35;88.66;97013.22;5051021;28;20056;-67
2021/11/23 08:00:43;;;;;;;56.22;28.17;;;;;;;9.20;89.25;96815.50;5055608;28;20143;-68
2021/11/23 08:03:11;;;;;;;46.20;23.27;;;;;;;11.27;87.82;97095.84;5058648;28;20080;-70
2021/11/23 08:05:39;;;;;;;35.30;17.05;;;;;;;10.98;88.61;97084.72;5062546;28;20056;-67
2021/11/23 08:08:08;;;;;;;26.90;14.50;;;;;;;10.63;89.77;97094.03;5061619;28;20041;-70
2021/11/23 08:10:36;;;;;;;26.10;13.25;;;;;;;10.66;90.07;97071.13;5061638;28;20064;-68
2021/11/23 08:13:03;;;;;;;30.30;15.30;;;;;;;10.83;87.09;97069.03;5063205;28;20048;-68
2021/11/23 08:15:30;;;;;;;26.20;13.73;;;;;;;11.17;86.58;97084.59;5062333;28;20049;-67
2021/11/23 08:17:56;;;;;;;25.02;11.32;;;;;;;10.93;85.67;97032.34;5060422;28;20075;-68
2021/11/23 08:20:23;;;;;;;21.60;10.05;;;;;;;10.53;85.42;96971.97;5061792;28;20199;-69
2021/11/23 08:22:51;;;;;;;23.35;11.05;;;;;;;11.35;86.24;97107.88;5062618;28;20056;-64
2021/11/23 08:25:18;;;;;;;20.05;11.02;;;;;;;11.06;84.91;97044.84;5054665;28;20044;-60
2021/11/23 08:27:45;;;;;;;23.30;11.25;;;;;;;11.41;84.23;97086.97;5062773;28;20059;-68
2021/11/23 08:30:12;;;;;;;19.30;10.25;;;;;;;10.92;83.68;96976.16;5056565;28;20563;-68
2021/11/23 08:32:39;;;;;;;26.85;12.27;;;;;;;11.58;84.25;97083.63;5054150;28;20049;-65
2021/11/23 08:35:07;;;;;;;28.15;13.05;;;;;;;11.60;84.26;97075.72;5061910;28;20037;-70
2021/11/23 08:37:34;;;;;;;27.77;13.85;;;;;;;11.90;83.98;97118.19;5062428;28;20129;-64
2021/11/23 08:40:03;;;;;;;25.48;12.82;;;;;;;12.00;83.39;97114.72;5060825;28;20057;-68
2021/11/23 08:42:30;;;;;;;37.53;17.23;;;;;;;11.72;83.34;97062.44;5060482;28;20056;-65
2021/11/23 08:44:58;;;;;;;44.05;21.77;;;;;;;11.53;84.15;97047.88;5057464;28;20055;-66
2021/11/23 08:47:26;;;;;;;52.58;24.92;;;;;;;12.04;83.54;97115.59;5052932;28;20586;-66
2021/11/23 08:49:56;;;;;;;55.35;23.73;;;;;;;10.87;83.17;96923.00;5059807;28;20063;-72
2021/11/23 08:52:26;;;;;;;45.83;22.48;;;;;;;12.02;84.02;97120.72;5060881;28;20475;-62
2021/11/23 08:54:54;;;;;;;27.92;16.05;;;;;;;10.92;86.79;97034.34;5050456;28;20049;-62
2021/11/23 08:57:22;;;;;;;39.83;16.13;;;;;;;11.29;90.21;97125.97;5052965;28;20055;-69
2021/11/23 08:59:51;;;;;;;38.40;16.98;;;;;;;11.31;90.26;97118.09;5063733;28;20404;-69
2021/11/23 09:02:18;;;;;;;26.60;13.32;;;;;;;11.00;92.25;97116.41;5065113;28;20526;-68
2021/11/23 09:04:45;;;;;;;27.42;13.13;;;;;;;10.70;95.00;97110.00;5061150;28;20053;-66
2021/11/23 09:07:17;;;;;;;33.05;15.60;;;;;;;10.71;96.12;97133.75;5063047;28;20055;-69
2021/11/23 09:09:44;;;;;;;27.08;13.30;;;;;;;10.57;97.66;97112.09;5064698;28;20054;-69
2021/11/23 09:12:14;;;;;;;34.17;16.40;;;;;;;9.50;98.18;96954.69;5062228;28;20526;-71
2021/11/23 09:14:41;;;;;;;24.17;13.88;;;;;;;10.68;97.69;97104.78;5062673;28;20072;-69
2021/11/23 09:17:08;;;;;;;33.88;14.52;;;;;;;10.63;96.55;97058.03;5060027;28;20057;-64
2021/11/23 09:19:36;;;;;;;37.90;15.82;;;;;;;10.28;95.22;96970.78;5063610;28;20535;-65
2021/11/23 09:22:03;;;;;;;43.63;17.75;;;;;;;10.21;94.23;96920.84;5063960;28;20068;-66
2021/11/23 09:24:32;;;;;;;46.22;18.63;;;;;;;10.68;93.19;96968.25;5066189;28;20056;-68
2021/11/23 09:26:59;;;;;;;75.85;29.67;;;;;;;11.68;92.77;97102.44;5064911;28;20138;-65
2021/11/23 09:29:26;;;;;;;57.08;23.95;;;;;;;11.59;90.50;97051.91;5058096;28;20062;-64
2021/11/23 09:31:53;;;;;;;60.28;29.88;;;;;;;11.76;89.84;97084.72;5065945;28;20588;-68
2021/11/23 09:34:22;;;;;;;36.42;18.65;;;;;;;12.00;89.21;97109.19;5065572;28;20135;-64
2021/11/23 09:36:55;;;;;;;45.35;23.52;;;;;;;12.18;87.30;97096.31;5059093;28;20134;-65
2021/11/23 09:39:22;;;;;;;47.40;28.63;;;;;;;11.38;86.75;97004.50;5063193;28;20060;-64
2021/11/23 09:41:49;;;;;;;56.05;28.60;;;;;;;11.45;88.08;97029.53;5058292;28;20048;-64
2021/11/23 09:44:16;;;;;;;52.65;27.63;;;;;;;11.62;87.80;97062.25;5055098;28;20044;-67
2021/11/23 09:46:43;;;;;;;53.15;29.33;;;;;;;11.96;87.07;97097.25;5059121;28;20048;-65
2021/11/23 09:49:10;;;;;;;43.28;21.17;;;;;;;12.04;85.46;97107.25;5044394;28;20049;-64
2021/11/23 09:51:38;;;;;;;49.30;23.35;;;;;;;11.11;84.84;96975.22;5062475;28;20053;-66
2021/11/23 09:54:08;;;;;;;52.72;25.98;;;;;;;12.06;83.51;97071.59;5063699;28;20702;-64
2021/11/23 09:56:37;;;;;;;55.05;30.77;;;;;;;12.40;83.47;97100.94;5064352;28;20319;-65
2021/11/23 09:59:09;;;;;;;62.90;32.40;;;;;;;11.90;82.64;97016.25;5065880;28;20096;-64
2021/11/23 10:01:58;;;;;;;46.00;25.38;;;;;;;12.64;80.04;97103.16;5064749;28;20071;-67
2021/11/23 10:05:21;;;;;;;28.25;14.57;;;;;;;12.08;79.49;96997.03;5052358;28;20049;-71
2021/11/23 10:07:48;;;;;;;34.50;16.20;;;;;;;12.36;80.12;97027.84;5031771;28;20162;-70
2021/11/23 10:10:27;;;;;;;28.85;14.07;;;;;;;12.10;79.24;96989.13;5037886;28;20048;-67
2021/11/23 10:12:57;;;;;;;27.85;14.23;;;;;;;12.88;79.42;97035.09;5060182;28;20084;-64
2021/11/23 10:15:26;;;;;;;27.35;13.70;;;;;;;12.97;78.82;97021.63;5049067;28;20435;-71
2021/11/23 10:18:08;;;;;;;23.00;11.25;;;;;;;13.35;78.34;97093.47;5063718;28;20049;-70
2021/11/23 10:20:55;;;;;;;22.30;11.40;;;;;;;13.47;77.81;97091.16;5056323;28;20507;-67
2021/11/23 10:23:33;;;;;;;22.90;10.93;;;;;;;12.85;76.80;96985.81;5058652;28;20064;-65
2021/11/23 10:26:14;;;;;;;26.33;13.27;;;;;;;12.80;75.92;96984.19;5051579;28;20147;-64
2021/11/23 10:28:51;;;;;;;24.70;12.60;;;;;;;13.29;75.06;97065.19;5062935;28;20062;-66
2021/11/23 10:31:19;;;;;;;28.17;13.93;;;;;;;12.88;74.39;96991.38;5063233;28;20057;-69
2021/11/23 10:33:54;;;;;;;36.92;16.73;;;;;;;13.30;73.90;97013.94;5063081;28;20080;-65
2021/11/23 10:36:21;;;;;;;26.88;12.85;;;;;;;13.94;72.90;97097.78;5046023;28;20063;-68
2021/11/23 10:38:50;;;;;;;20.98;11.70;;;;;;;14.05;72.75;97084.72;5051405;28;20052;-68
2021/11/23 10:41:17;;;;;;;48.05;21.75;;;;;;;14.10;72.66;97081.56;5063281;28;20052;-68
2021/11/23 10:43:45;;;;;;;58.53;25.20;;;;;;;13.77;72.16;97026.13;4867844;28;5001706;-66
2021/11/23 10:46:21;;;;;;;24.13;13.40;;;;;;;14.56;71.24;97082.50;5064680;28;20079;-66
2021/11/23 10:48:56;;;;;;;29.10;13.65;;;;;;;14.62;70.63;97072.56;5065110;28;20055;-65
2021/11/23 10:51:25;;;;;;;29.73;15.32;;;;;;;13.99;70.41;96988.81;5065491;28;20056;-66
2021/11/23 10:54:15;;;;;;;17.83;9.85;;;;;;;14.00;70.67;96962.53;5064799;28;20076;-65
2021/11/23 10:57:06;;;;;;;26.50;12.43;;;;;;;14.75;69.21;97055.06;5064941;28;20064;-67
2021/11/23 10:59:34;;;;;;;18.83;10.25;;;;;;;14.84;67.97;97052.66;5063457;28;20418;-67
2021/11/23 11:02:02;;;;;;;12.55;7.55;;;;;;;14.24;67.42;96972.94;5064837;28;20143;-68
2021/11/23 11:04:33;;;;;;;14.32;7.93;;;;;;;14.59;66.98;96989.72;5063294;28;20526;-68
2021/11/23 11:07:02;;;;;;;16.38;9.27;;;;;;;14.78;67.06;97014.41;5063788;28;20049;-67
2021/11/23 11:09:30;;;;;;;15.27;7.35;;;;;;;14.95;66.80;97061.06;5063119;28;20056;-68
2021/11/23 11:11:57;;;;;;;13.73;6.68;;;;;;;14.92;66.41;97059.84;5063200;28;20063;-67
2021/11/23 11:14:25;;;;;;;15.18;7.00;;;;;;;14.90;67.18;97067.00;5063871;28;20048;-68
2021/11/23 11:16:52;;;;;;;14.23;7.13;;;;;;;13.14;66.32;96770.69;5058741;28;20069;-69
2021/11/23 11:19:20;;;;;;;20.23;8.63;;;;;;;14.78;66.36;97059.81;5048873;28;20430;-65
2021/11/23 11:21:47;;;;;;;19.88;10.23;;;;;;;14.97;67.34;97065.03;5063837;28;20082;-65
2021/11/23 11:24:23;;;;;;;12.23;6.70;;;;;;;15.13;65.86;97067.41;5063214;28;20507;-65
2021/11/23 11:26:54;;;;;;;46.90;25.65;;;;;;;14.65;65.47;96963.03;5061834;28;20060;-68